sensor_id;sensor_type;location;lat;lon;timestamp;temperature;humidity
3644;DHT22;1838;50.742;7.158;2023-02-23T00:01:28;11.40;99.90
3644;DHT22;1838;50.742;7.158;2023-02-23T00:03:56;11.40;99.90
3644;DHT22;1838;50.742;7.158;2023-02-23T00:06:23;11.40;99.90
3644;DHT22;1838;50.742;7.158;2023-02-23T00:08:48;11.30;99.90
3644;DHT22;1838;50.742;7.158;2023-02-23T00:11:16;11.30;99.90
3644;DHT22;1838;50.742;7.158;2023-02-23T00:13:43;11.30;99.90
3644;DHT22;1838;50.742;7.158;2023-02-23T00:16:12;11.40;99.90
3644;DHT22;1838;50.742;7.158;2023-02-23T00:18:46;11.30;99.90
3644;DHT22;1838;50.742;7.158;2023-02-23T00:21:25;11.40;99.90
3644;DHT22;1838;50.742;7.158;2023-02-23T00:23:58;11.40;99.90
3644;DHT22;1838;50.742;7.158;2023-02-23T00:26:26;11.40;99.90
3644;DHT22;1838;50.742;7.158;2023-02-23T00:28:56;11.50;99.90
3644;DHT22;1838;50.742;7.158;2023-02-23T00:31:23;11.50;99.90
3644;DHT22;1838;50.742;7.158;2023-02-23T00:33:51;11.50;99.90
3644;DHT22;1838;50.742;7.158;2023-02-23T00:36:20;11.40;99.90
3644;DHT22;1838;50.742;7.158;2023-02-23T00:38:46;11.40;99.90
3644;DHT22;1838;50.742;7.158;2023-02-23T00:41:14;11.40;99.90
3644;DHT22;1838;50.742;7.158;2023-02-23T00:43:45;11.30;99.90
3644;DHT22;1838;50.742;7.158;2023-02-23T00:46:18;11.30;99.90
3644;DHT22;1838;50.742;7.158;2023-02-23T00:48:49;11.40;99.90
3644;DHT22;1838;50.742;7.158;2023-02-23T00:51:17;11.40;99.90
3644;DHT22;1838;50.742;7.158;2023-02-23T00:53:44;11.40;99.90
3644;DHT22;1838;50.742;7.158;2023-02-23T00:56:12;11.50;99.90
3644;DHT22;1838;50.742;7.158;2023-02-23T00:58:41;11.40;99.90
3644;DHT22;1838;50.742;7.158;2023-02-23T01:01:09;11.30;99.90
3644;DHT22;1838;50.742;7.158;2023-02-23T01:03:36;11.40;99.90
3644;DHT22;1838;50.742;7.158;2023-02-23T01:06:04;11.40;99.90
3644;DHT22;1838;50.742;7.158;2023-02-23T01:08:32;11.40;99.90
3644;DHT22;1838;50.742;7.158;2023-02-23T01:10:58;11.40;99.90
3644;DHT22;1838;50.742;7.158;2023-02-23T01:13:29;11.40;99.90
3644;DHT22;1838;50.742;7.158;2023-02-23T01:15:55;11.40;99.90
3644;DHT22;1838;50.742;7.158;2023-02-23T01:18:21;11.40;99.90
3644;DHT22;1838;50.742;7.158;2023-02-23T01:20:46;11.40;99.90
3644;DHT22;1838;50.742;7.158;2023-02-23T01:23:13;11.40;99.90
3644;DHT22;1838;50.742;7.158;2023-02-23T01:25:41;11.40;99.90
3644;DHT22;1838;50.742;7.158;2023-02-23T01:28:08;11.50;99.90
3644;DHT22;1838;50.742;7.158;2023-02-23T01:30:33;11.50;99.90
3644;DHT22;1838;50.742;7.158;2023-02-23T01:32:59;11.50;99.90
3644;DHT22;1838;50.742;7.158;2023-02-23T01:35:27;11.50;99.90
3644;DHT22;1838;50.742;7.158;2023-02-23T01:37:52;11.50;99.90
3644;DHT22;1838;50.742;7.158;2023-02-23T01:40:20;11.50;99.90
3644;DHT22;1838;50.742;7.158;2023-02-23T01:43:18;11.50;99.90
3644;DHT22;1838;50.742;7.158;2023-02-23T01:45:44;11.50;99.90
3644;DHT22;1838;50.742;7.158;2023-02-23T01:48:12;11.50;99.90
3644;DHT22;1838;50.742;7.158;2023-02-23T01:51:03;11.50;99.90
3644;DHT22;1838;50.742;7.158;2023-02-23T01:53:34;11.50;99.90
3644;DHT22;1838;50.742;7.158;2023-02-23T01:56:06;11.50;99.90
3644;DHT22;1838;50.742;7.158;2023-02-23T01:58:40;11.50;99.90
3644;DHT22;1838;50.742;7.158;2023-02-23T02:01:08;11.50;99.90
3644;DHT22;1838;50.742;7.158;2023-02-23T02:03:38;11.50;99.90
3644;DHT22;1838;50.742;7.158;2023-02-23T02:06:07;11.50;99.90
3644;DHT22;1838;50.742;7.158;2023-02-23T02:08:36;11.50;99.90
3644;DHT22;1838;50.742;7.158;2023-02-23T02:11:10;11.50;99.90
3644;DHT22;1838;50.742;7.158;2023-02-23T02:13:54;11.50;99.90
3644;DHT22;1838;50.742;7.158;2023-02-23T02:23:09;11.50;99.90
3644;DHT22;1838;50.742;7.158;2023-02-23T02:42:36;11.40;99.90
3644;DHT22;1838;50.742;7.158;2023-02-23T02:45:20;11.40;99.90
3644;DHT22;1838;50.742;7.158;2023-02-23T02:50:54;11.40;99.90
3644;DHT22;1838;50.742;7.158;2023-02-23T02:56:19;11.20;99.90
3644;DHT22;1838;50.742;7.158;2023-02-23T02:58:47;11.10;99.90
3644;DHT22;1838;50.742;7.158;2023-02-23T03:01:15;11.00;99.90
3644;DHT22;1838;50.742;7.158;2023-02-23T03:04:17;11.00;99.90
3644;DHT22;1838;50.742;7.158;2023-02-23T03:07:15;10.90;99.90
3644;DHT22;1838;50.742;7.158;2023-02-23T03:10:21;10.80;99.90
3644;DHT22;1838;50.742;7.158;2023-02-23T03:16:59;10.80;99.90
3644;DHT22;1838;50.742;7.158;2023-02-23T03:19:56;10.80;99.90
3644;DHT22;1838;50.742;7.158;2023-02-23T03:22:52;10.80;99.90
3644;DHT22;1838;50.742;7.158;2023-02-23T03:26:08;10.80;99.90
3644;DHT22;1838;50.742;7.158;2023-02-23T03:35:05;11.00;99.90
3644;DHT22;1838;50.742;7.158;2023-02-23T03:38:05;10.90;99.90
3644;DHT22;1838;50.742;7.158;2023-02-23T03:40:54;10.90;99.90
3644;DHT22;1838;50.742;7.158;2023-02-23T03:43:51;11.00;99.90
3644;DHT22;1838;50.742;7.158;2023-02-23T03:46:37;11.10;99.90
3644;DHT22;1838;50.742;7.158;2023-02-23T03:49:25;11.10;99.90
3644;DHT22;1838;50.742;7.158;2023-02-23T03:52:15;11.20;99.90
3644;DHT22;1838;50.742;7.158;2023-02-23T03:55:24;11.30;99.90
3644;DHT22;1838;50.742;7.158;2023-02-23T03:58:12;11.20;99.90
3644;DHT22;1838;50.742;7.158;2023-02-23T04:00:59;11.20;99.90
3644;DHT22;1838;50.742;7.158;2023-02-23T04:03:46;11.20;99.90
3644;DHT22;1838;50.742;7.158;2023-02-23T04:06:38;11.20;99.90
3644;DHT22;1838;50.742;7.158;2023-02-23T04:09:23;11.20;99.90
3644;DHT22;1838;50.742;7.158;2023-02-23T04:17:33;11.10;99.90
3644;DHT22;1838;50.742;7.158;2023-02-23T04:19:59;11.10;99.90
3644;DHT22;1838;50.742;7.158;2023-02-23T04:22:24;11.10;99.90
3644;DHT22;1838;50.742;7.158;2023-02-23T04:24:50;11.10;99.90
3644;DHT22;1838;50.742;7.158;2023-02-23T04:27:16;11.00;99.90
3644;DHT22;1838;50.742;7.158;2023-02-23T04:29:42;11.00;99.90
3644;DHT22;1838;50.742;7.158;2023-02-23T04:32:12;11.00;99.90
3644;DHT22;1838;50.742;7.158;2023-02-23T04:34:38;11.00;99.90
3644;DHT22;1838;50.742;7.158;2023-02-23T04:37:04;11.00;99.90
3644;DHT22;1838;50.742;7.158;2023-02-23T04:39:30;11.00;99.90
3644;DHT22;1838;50.742;7.158;2023-02-23T04:41:55;11.00;99.90
3644;DHT22;1838;50.742;7.158;2023-02-23T04:44:21;11.10;99.90
3644;DHT22;1838;50.742;7.158;2023-02-23T04:46:46;11.10;99.90
3644;DHT22;1838;50.742;7.158;2023-02-23T04:49:12;11.10;99.90
3644;DHT22;1838;50.742;7.158;2023-02-23T04:51:37;11.10;99.90
3644;DHT22;1838;50.742;7.158;2023-02-23T04:54:04;11.20;99.90
3644;DHT22;1838;50.742;7.158;2023-02-23T04:56:30;11.10;99.90
3644;DHT22;1838;50.742;7.158;2023-02-23T04:58:56;11.10;99.90
3644;DHT22;1838;50.742;7.158;2023-02-23T05:01:22;11.10;99.90
3644;DHT22;1838;50.742;7.158;2023-02-23T05:03:48;11.10;99.90
3644;DHT22;1838;50.742;7.158;2023-02-23T05:06:17;11.10;99.90
3644;DHT22;1838;50.742;7.158;2023-02-23T05:08:43;11.10;99.90
3644;DHT22;1838;50.742;7.158;2023-02-23T05:11:09;11.10;99.90
3644;DHT22;1838;50.742;7.158;2023-02-23T05:13:35;11.00;99.90
3644;DHT22;1838;50.742;7.158;2023-02-23T05:16:00;11.10;99.90
3644;DHT22;1838;50.742;7.158;2023-02-23T05:18:27;11.10;99.90
3644;DHT22;1838;50.742;7.158;2023-02-23T05:21:01;11.10;99.90
3644;DHT22;1838;50.742;7.158;2023-02-23T05:23:27;11.10;99.90
3644;DHT22;1838;50.742;7.158;2023-02-23T05:25:53;11.10;99.90
3644;DHT22;1838;50.742;7.158;2023-02-23T05:28:23;11.10;99.90
3644;DHT22;1838;50.742;7.158;2023-02-23T05:30:49;11.10;99.90
3644;DHT22;1838;50.742;7.158;2023-02-23T05:33:15;11.00;99.90
3644;DHT22;1838;50.742;7.158;2023-02-23T05:35:40;11.10;99.90
3644;DHT22;1838;50.742;7.158;2023-02-23T05:38:06;11.10;99.90
3644;DHT22;1838;50.742;7.158;2023-02-23T05:40:32;11.10;99.90
3644;DHT22;1838;50.742;7.158;2023-02-23T05:42:58;11.10;99.90
3644;DHT22;1838;50.742;7.158;2023-02-23T05:45:24;11.10;99.90
3644;DHT22;1838;50.742;7.158;2023-02-23T05:47:50;11.10;99.90
3644;DHT22;1838;50.742;7.158;2023-02-23T05:50:16;11.00;99.90
3644;DHT22;1838;50.742;7.158;2023-02-23T05:52:43;11.00;99.90
3644;DHT22;1838;50.742;7.158;2023-02-23T05:55:10;11.00;99.90
3644;DHT22;1838;50.742;7.158;2023-02-23T05:57:39;11.10;99.90
3644;DHT22;1838;50.742;7.158;2023-02-23T06:00:06;11.10;99.90
3644;DHT22;1838;50.742;7.158;2023-02-23T06:02:32;11.10;99.90
3644;DHT22;1838;50.742;7.158;2023-02-23T06:04:58;11.10;99.90
3644;DHT22;1838;50.742;7.158;2023-02-23T06:07:24;11.10;99.90
3644;DHT22;1838;50.742;7.158;2023-02-23T06:09:50;11.10;99.90
3644;DHT22;1838;50.742;7.158;2023-02-23T06:12:15;11.10;99.90
3644;DHT22;1838;50.742;7.158;2023-02-23T06:14:41;11.10;99.90
3644;DHT22;1838;50.742;7.158;2023-02-23T06:17:06;11.10;99.90
3644;DHT22;1838;50.742;7.158;2023-02-23T06:19:33;11.10;99.90
3644;DHT22;1838;50.742;7.158;2023-02-23T06:21:58;11.10;99.90
3644;DHT22;1838;50.742;7.158;2023-02-23T06:24:24;11.10;99.90
3644;DHT22;1838;50.742;7.158;2023-02-23T06:26:50;11.10;99.90
3644;DHT22;1838;50.742;7.158;2023-02-23T06:29:21;11.10;99.90
3644;DHT22;1838;50.742;7.158;2023-02-23T06:31:47;11.10;99.90
3644;DHT22;1838;50.742;7.158;2023-02-23T06:34:12;11.10;99.90
3644;DHT22;1838;50.742;7.158;2023-02-23T06:36:38;11.10;99.90
3644;DHT22;1838;50.742;7.158;2023-02-23T06:39:03;11.10;99.90
3644;DHT22;1838;50.742;7.158;2023-02-23T06:41:29;11.10;99.90
3644;DHT22;1838;50.742;7.158;2023-02-23T06:43:55;11.20;99.90
3644;DHT22;1838;50.742;7.158;2023-02-23T06:46:21;11.20;99.90
3644;DHT22;1838;50.742;7.158;2023-02-23T06:48:47;11.20;99.90
3644;DHT22;1838;50.742;7.158;2023-02-23T06:51:12;11.20;99.90
3644;DHT22;1838;50.742;7.158;2023-02-23T06:53:38;11.20;99.90
3644;DHT22;1838;50.742;7.158;2023-02-23T06:56:04;11.30;99.90
3644;DHT22;1838;50.742;7.158;2023-02-23T06:58:29;11.30;99.90
3644;DHT22;1838;50.742;7.158;2023-02-23T07:00:56;11.20;99.90
3644;DHT22;1838;50.742;7.158;2023-02-23T07:03:22;11.20;99.90
3644;DHT22;1838;50.742;7.158;2023-02-23T07:05:48;11.30;99.90
3644;DHT22;1838;50.742;7.158;2023-02-23T07:08:15;11.30;99.90
3644;DHT22;1838;50.742;7.158;2023-02-23T07:10:41;11.30;99.90
3644;DHT22;1838;50.742;7.158;2023-02-23T07:13:07;11.30;99.90
3644;DHT22;1838;50.742;7.158;2023-02-23T07:15:35;11.30;99.90
3644;DHT22;1838;50.742;7.158;2023-02-23T07:18:01;11.30;99.90
3644;DHT22;1838;50.742;7.158;2023-02-23T07:20:27;11.30;99.90
3644;DHT22;1838;50.742;7.158;2023-02-23T07:22:52;11.30;99.90
3644;DHT22;1838;50.742;7.158;2023-02-23T07:25:19;11.30;99.90
3644;DHT22;1838;50.742;7.158;2023-02-23T07:27:45;11.30;99.90
3644;DHT22;1838;50.742;7.158;2023-02-23T07:30:11;11.30;99.90
3644;DHT22;1838;50.742;7.158;2023-02-23T07:32:36;11.30;99.90
3644;DHT22;1838;50.742;7.158;2023-02-23T07:35:03;11.30;99.90
3644;DHT22;1838;50.742;7.158;2023-02-23T07:37:29;11.30;99.90
3644;DHT22;1838;50.742;7.158;2023-02-23T07:39:54;11.30;99.90
3644;DHT22;1838;50.742;7.158;2023-02-23T07:42:20;11.40;99.90
3644;DHT22;1838;50.742;7.158;2023-02-23T07:44:45;11.40;99.90
3644;DHT22;1838;50.742;7.158;2023-02-23T07:47:11;11.40;99.90
3644;DHT22;1838;50.742;7.158;2023-02-23T07:49:36;11.40;99.90
3644;DHT22;1838;50.742;7.158;2023-02-23T07:52:02;11.40;99.90
3644;DHT22;1838;50.742;7.158;2023-02-23T07:54:28;11.50;99.90
3644;DHT22;1838;50.742;7.158;2023-02-23T07:56:53;11.40;99.90
3644;DHT22;1838;50.742;7.158;2023-02-23T07:59:19;11.50;99.90
3644;DHT22;1838;50.742;7.158;2023-02-23T08:01:45;11.50;99.90
3644;DHT22;1838;50.742;7.158;2023-02-23T08:04:10;11.50;99.90
3644;DHT22;1838;50.742;7.158;2023-02-23T08:06:36;11.50;99.90
3644;DHT22;1838;50.742;7.158;2023-02-23T08:09:02;11.50;99.90
3644;DHT22;1838;50.742;7.158;2023-02-23T08:11:28;11.50;99.90
3644;DHT22;1838;50.742;7.158;2023-02-23T08:13:55;11.50;99.90
3644;DHT22;1838;50.742;7.158;2023-02-23T08:16:28;11.50;99.90
3644;DHT22;1838;50.742;7.158;2023-02-23T08:18:55;11.50;99.90
3644;DHT22;1838;50.742;7.158;2023-02-23T08:21:22;11.50;99.90
3644;DHT22;1838;50.742;7.158;2023-02-23T08:23:48;11.50;99.90
3644;DHT22;1838;50.742;7.158;2023-02-23T08:26:14;11.50;99.90
3644;DHT22;1838;50.742;7.158;2023-02-23T08:28:39;11.40;99.90
3644;DHT22;1838;50.742;7.158;2023-02-23T08:31:09;11.40;99.90
3644;DHT22;1838;50.742;7.158;2023-02-23T08:33:35;11.40;99.90
3644;DHT22;1838;50.742;7.158;2023-02-23T08:36:02;11.40;99.90
3644;DHT22;1838;50.742;7.158;2023-02-23T08:38:28;11.40;99.90
3644;DHT22;1838;50.742;7.158;2023-02-23T08:40:54;11.40;99.90
3644;DHT22;1838;50.742;7.158;2023-02-23T08:43:19;11.30;99.90
3644;DHT22;1838;50.742;7.158;2023-02-23T08:45:45;11.20;99.90
3644;DHT22;1838;50.742;7.158;2023-02-23T08:48:10;11.20;99.90
3644;DHT22;1838;50.742;7.158;2023-02-23T08:50:36;11.20;99.90
3644;DHT22;1838;50.742;7.158;2023-02-23T08:53:02;11.30;99.90
3644;DHT22;1838;50.742;7.158;2023-02-23T08:55:28;11.30;99.90
3644;DHT22;1838;50.742;7.158;2023-02-23T08:57:53;11.30;99.90
3644;DHT22;1838;50.742;7.158;2023-02-23T09:00:19;11.30;99.90
3644;DHT22;1838;50.742;7.158;2023-02-23T09:02:45;11.40;99.90
3644;DHT22;1838;50.742;7.158;2023-02-23T09:05:15;11.40;99.90
3644;DHT22;1838;50.742;7.158;2023-02-23T09:07:41;11.40;99.90
3644;DHT22;1838;50.742;7.158;2023-02-23T09:10:16;11.50;99.90
3644;DHT22;1838;50.742;7.158;2023-02-23T09:12:44;11.50;99.90
3644;DHT22;1838;50.742;7.158;2023-02-23T09:15:11;11.60;99.90
3644;DHT22;1838;50.742;7.158;2023-02-23T09:17:37;11.60;99.90
3644;DHT22;1838;50.742;7.158;2023-02-23T09:20:03;11.60;99.90
3644;DHT22;1838;50.742;7.158;2023-02-23T09:22:30;11.70;99.90
3644;DHT22;1838;50.742;7.158;2023-02-23T09:24:55;11.70;99.90
3644;DHT22;1838;50.742;7.158;2023-02-23T09:27:21;11.70;99.90
3644;DHT22;1838;50.742;7.158;2023-02-23T09:29:49;11.80;99.90
3644;DHT22;1838;50.742;7.158;2023-02-23T09:32:15;11.80;99.90
3644;DHT22;1838;50.742;7.158;2023-02-23T09:34:40;11.80;99.90
3644;DHT22;1838;50.742;7.158;2023-02-23T09:37:06;11.80;99.90
3644;DHT22;1838;50.742;7.158;2023-02-23T09:39:32;11.80;99.90
3644;DHT22;1838;50.742;7.158;2023-02-23T09:49:58;12.00;99.90
3644;DHT22;1838;50.742;7.158;2023-02-23T09:52:38;12.00;99.90
3644;DHT22;1838;50.742;7.158;2023-02-23T09:55:04;12.00;99.90
3644;DHT22;1838;50.742;7.158;2023-02-23T09:57:39;12.00;99.90
3644;DHT22;1838;50.742;7.158;2023-02-23T10:00:33;11.80;99.90
3644;DHT22;1838;50.742;7.158;2023-02-23T10:05:42;11.90;99.90
3644;DHT22;1838;50.742;7.158;2023-02-23T10:08:22;11.90;99.90
3644;DHT22;1838;50.742;7.158;2023-02-23T10:10:50;12.00;99.90
3644;DHT22;1838;50.742;7.158;2023-02-23T10:18:48;12.00;99.90
3644;DHT22;1838;50.742;7.158;2023-02-23T10:21:32;12.00;99.90
3644;DHT22;1838;50.742;7.158;2023-02-23T10:24:09;12.00;99.90
3644;DHT22;1838;50.742;7.158;2023-02-23T10:29:26;12.20;99.90
3644;DHT22;1838;50.742;7.158;2023-02-23T10:32:14;12.20;99.90
3644;DHT22;1838;50.742;7.158;2023-02-23T10:34:44;12.20;99.90
3644;DHT22;1838;50.742;7.158;2023-02-23T10:37:17;12.20;99.90
3644;DHT22;1838;50.742;7.158;2023-02-23T10:39:43;12.30;99.90
3644;DHT22;1838;50.742;7.158;2023-02-23T10:42:21;12.20;99.90
3644;DHT22;1838;50.742;7.158;2023-02-23T10:44:47;12.30;99.90
3644;DHT22;1838;50.742;7.158;2023-02-23T10:47:17;12.30;99.90
3644;DHT22;1838;50.742;7.158;2023-02-23T10:49:46;12.40;99.90
3644;DHT22;1838;50.742;7.158;2023-02-23T10:52:17;12.50;99.90
3644;DHT22;1838;50.742;7.158;2023-02-23T10:54:46;12.60;99.90
3644;DHT22;1838;50.742;7.158;2023-02-23T10:57:22;12.70;99.90
3644;DHT22;1838;50.742;7.158;2023-02-23T11:00:25;12.70;99.90
3644;DHT22;1838;50.742;7.158;2023-02-23T11:02:57;12.80;99.90
3644;DHT22;1838;50.742;7.158;2023-02-23T11:05:30;12.90;99.90
3644;DHT22;1838;50.742;7.158;2023-02-23T11:08:09;12.90;99.90
3644;DHT22;1838;50.742;7.158;2023-02-23T11:10:35;13.00;99.90
3644;DHT22;1838;50.742;7.158;2023-02-23T11:13:01;13.00;99.90
3644;DHT22;1838;50.742;7.158;2023-02-23T11:15:31;13.00;99.90
3644;DHT22;1838;50.742;7.158;2023-02-23T11:18:02;12.90;99.90
3644;DHT22;1838;50.742;7.158;2023-02-23T11:20:35;12.90;99.90
3644;DHT22;1838;50.742;7.158;2023-02-23T11:23:10;13.00;99.90
3644;DHT22;1838;50.742;7.158;2023-02-23T11:25:36;13.00;99.90
3644;DHT22;1838;50.742;7.158;2023-02-23T11:28:15;13.10;99.90
3644;DHT22;1838;50.742;7.158;2023-02-23T11:30:41;13.20;99.90
3644;DHT22;1838;50.742;7.158;2023-02-23T11:33:16;13.30;99.90
3644;DHT22;1838;50.742;7.158;2023-02-23T11:35:44;13.20;99.90
3644;DHT22;1838;50.742;7.158;2023-02-23T11:38:28;13.30;99.90
3644;DHT22;1838;50.742;7.158;2023-02-23T11:41:17;13.40;99.90
3644;DHT22;1838;50.742;7.158;2023-02-23T11:43:51;13.50;99.90
3644;DHT22;1838;50.742;7.158;2023-02-23T11:46:21;13.50;99.90
3644;DHT22;1838;50.742;7.158;2023-02-23T11:48:55;13.50;99.90
3644;DHT22;1838;50.742;7.158;2023-02-23T11:51:48;13.50;99.90
3644;DHT22;1838;50.742;7.158;2023-02-23T11:54:26;13.40;99.90
3644;DHT22;1838;50.742;7.158;2023-02-23T11:56:52;13.40;99.90
3644;DHT22;1838;50.742;7.158;2023-02-23T11:59:29;13.20;99.90
3644;DHT22;1838;50.742;7.158;2023-02-23T12:02:05;13.20;99.90
3644;DHT22;1838;50.742;7.158;2023-02-23T12:04:44;13.20;99.90
3644;DHT22;1838;50.742;7.158;2023-02-23T12:07:27;13.20;99.90
3644;DHT22;1838;50.742;7.158;2023-02-23T12:10:22;13.10;99.90
3644;DHT22;1838;50.742;7.158;2023-02-23T12:15:27;13.10;99.90
3644;DHT22;1838;50.742;7.158;2023-02-23T12:18:51;13.10;99.90
3644;DHT22;1838;50.742;7.158;2023-02-23T12:20:49;13.00;99.90
3644;DHT22;1838;50.742;7.158;2023-02-23T12:23:22;12.90;99.90
3644;DHT22;1838;50.742;7.158;2023-02-23T12:25:54;12.90;99.90
3644;DHT22;1838;50.742;7.158;2023-02-23T12:28:35;12.80;99.90
3644;DHT22;1838;50.742;7.158;2023-02-23T12:31:16;12.70;99.90
3644;DHT22;1838;50.742;7.158;2023-02-23T12:33:46;12.60;99.90
3644;DHT22;1838;50.742;7.158;2023-02-23T12:39:21;12.30;99.90
3644;DHT22;1838;50.742;7.158;2023-02-23T12:42:34;12.30;99.90
3644;DHT22;1838;50.742;7.158;2023-02-23T12:45:05;12.30;99.90
3644;DHT22;1838;50.742;7.158;2023-02-23T12:47:39;12.20;99.90
3644;DHT22;1838;50.742;7.158;2023-02-23T12:50:26;12.10;99.90
3644;DHT22;1838;50.742;7.158;2023-02-23T12:58:39;12.00;99.90
3644;DHT22;1838;50.742;7.158;2023-02-23T13:01:08;11.90;99.90
3644;DHT22;1838;50.742;7.158;2023-02-23T13:03:49;12.00;99.90
3644;DHT22;1838;50.742;7.158;2023-02-23T13:11:57;12.00;99.90
3644;DHT22;1838;50.742;7.158;2023-02-23T13:17:04;11.90;99.90
3644;DHT22;1838;50.742;7.158;2023-02-23T13:19:40;11.90;99.90
3644;DHT22;1838;50.742;7.158;2023-02-23T13:24:59;11.80;99.90
3644;DHT22;1838;50.742;7.158;2023-02-23T13:27:48;11.80;99.90
3644;DHT22;1838;50.742;7.158;2023-02-23T13:30:16;11.70;99.90
3644;DHT22;1838;50.742;7.158;2023-02-23T13:32:42;11.60;99.90
3644;DHT22;1838;50.742;7.158;2023-02-23T13:35:14;11.50;99.90
3644;DHT22;1838;50.742;7.158;2023-02-23T13:37:56;11.40;99.90
3644;DHT22;1838;50.742;7.158;2023-02-23T13:40:35;11.30;99.90
3644;DHT22;1838;50.742;7.158;2023-02-23T13:46:05;11.20;99.90
3644;DHT22;1838;50.742;7.158;2023-02-23T13:51:42;10.90;99.90
3644;DHT22;1838;50.742;7.158;2023-02-23T13:56:51;10.80;99.90
3644;DHT22;1838;50.742;7.158;2023-02-23T13:59:27;10.60;99.90
3644;DHT22;1838;50.742;7.158;2023-02-23T14:01:54;10.60;99.90
3644;DHT22;1838;50.742;7.158;2023-02-23T14:04:23;10.40;99.90
3644;DHT22;1838;50.742;7.158;2023-02-23T14:07:17;10.40;99.90
3644;DHT22;1838;50.742;7.158;2023-02-23T14:09:57;10.30;99.90
3644;DHT22;1838;50.742;7.158;2023-02-23T14:12:39;10.40;99.90
3644;DHT22;1838;50.742;7.158;2023-02-23T14:28:50;10.50;99.90
3644;DHT22;1838;50.742;7.158;2023-02-23T14:31:33;10.60;99.90
3644;DHT22;1838;50.742;7.158;2023-02-23T14:34:02;10.60;99.90
3644;DHT22;1838;50.742;7.158;2023-02-23T14:36:34;10.70;99.90
3644;DHT22;1838;50.742;7.158;2023-02-23T14:39:13;10.80;99.90
3644;DHT22;1838;50.742;7.158;2023-02-23T14:41:42;10.80;99.90
3644;DHT22;1838;50.742;7.158;2023-02-23T14:44:23;10.80;99.90
3644;DHT22;1838;50.742;7.158;2023-02-23T14:47:13;10.90;99.90
3644;DHT22;1838;50.742;7.158;2023-02-23T14:49:48;11.00;99.90
3644;DHT22;1838;50.742;7.158;2023-02-23T14:52:23;10.90;99.90
3644;DHT22;1838;50.742;7.158;2023-02-23T14:54:50;11.00;99.90
3644;DHT22;1838;50.742;7.158;2023-02-23T14:57:22;11.00;99.90
3644;DHT22;1838;50.742;7.158;2023-02-23T15:00:21;11.00;99.90
3644;DHT22;1838;50.742;7.158;2023-02-23T15:03:02;10.90;99.90
3644;DHT22;1838;50.742;7.158;2023-02-23T15:05:31;10.70;99.90
3644;DHT22;1838;50.742;7.158;2023-02-23T15:08:04;10.70;99.90
3644;DHT22;1838;50.742;7.158;2023-02-23T15:10:37;10.70;99.90
3644;DHT22;1838;50.742;7.158;2023-02-23T15:13:29;10.60;99.90
3644;DHT22;1838;50.742;7.158;2023-02-23T15:16:06;10.50;99.90
3644;DHT22;1838;50.742;7.158;2023-02-23T15:22:26;10.50;99.90
3644;DHT22;1838;50.742;7.158;2023-02-23T15:24:56;10.50;99.90
3644;DHT22;1838;50.742;7.158;2023-02-23T15:27:28;10.50;99.90
3644;DHT22;1838;50.742;7.158;2023-02-23T15:29:53;10.40;99.90
3644;DHT22;1838;50.742;7.158;2023-02-23T15:32:24;10.40;99.90
3644;DHT22;1838;50.742;7.158;2023-02-23T15:34:51;10.40;99.90
3644;DHT22;1838;50.742;7.158;2023-02-23T15:37:39;10.50;99.90
3644;DHT22;1838;50.742;7.158;2023-02-23T15:40:12;10.50;99.90
3644;DHT22;1838;50.742;7.158;2023-02-23T15:42:52;10.60;99.90
3644;DHT22;1838;50.742;7.158;2023-02-23T15:45:41;10.60;99.90
3644;DHT22;1838;50.742;7.158;2023-02-23T15:48:15;10.70;99.90
3644;DHT22;1838;50.742;7.158;2023-02-23T15:50:55;10.70;99.90
3644;DHT22;1838;50.742;7.158;2023-02-23T15:53:28;10.80;99.90
3644;DHT22;1838;50.742;7.158;2023-02-23T15:56:01;10.80;99.90
3644;DHT22;1838;50.742;7.158;2023-02-23T15:58:36;10.90;99.90
3644;DHT22;1838;50.742;7.158;2023-02-23T16:01:21;10.90;99.90
3644;DHT22;1838;50.742;7.158;2023-02-23T16:04:11;10.80;99.90
3644;DHT22;1838;50.742;7.158;2023-02-23T16:07:06;10.80;99.90
3644;DHT22;1838;50.742;7.158;2023-02-23T16:09:37;10.80;99.90
3644;DHT22;1838;50.742;7.158;2023-02-23T16:12:09;10.90;99.90
3644;DHT22;1838;50.742;7.158;2023-02-23T16:14:48;10.80;99.90
3644;DHT22;1838;50.742;7.158;2023-02-23T16:17:24;10.70;99.90
3644;DHT22;1838;50.742;7.158;2023-02-23T16:20:04;10.70;99.90
3644;DHT22;1838;50.742;7.158;2023-02-23T16:22:32;10.70;99.90
3644;DHT22;1838;50.742;7.158;2023-02-23T16:25:03;10.70;99.90
3644;DHT22;1838;50.742;7.158;2023-02-23T16:27:31;10.70;99.90
3644;DHT22;1838;50.742;7.158;2023-02-23T16:30:10;10.70;99.90
3644;DHT22;1838;50.742;7.158;2023-02-23T16:35:43;10.70;99.90
3644;DHT22;1838;50.742;7.158;2023-02-23T16:38:36;10.80;99.90
3644;DHT22;1838;50.742;7.158;2023-02-23T16:41:04;10.80;99.90
3644;DHT22;1838;50.742;7.158;2023-02-23T16:43:32;10.80;99.90
3644;DHT22;1838;50.742;7.158;2023-02-23T16:46:01;10.80;99.90
3644;DHT22;1838;50.742;7.158;2023-02-23T16:48:27;10.90;99.90
3644;DHT22;1838;50.742;7.158;2023-02-23T16:50:52;10.80;99.90
3644;DHT22;1838;50.742;7.158;2023-02-23T16:53:18;10.80;99.90
3644;DHT22;1838;50.742;7.158;2023-02-23T16:55:51;10.80;99.90
3644;DHT22;1838;50.742;7.158;2023-02-23T16:58:20;10.90;99.90
3644;DHT22;1838;50.742;7.158;2023-02-23T17:00:48;10.90;99.90
3644;DHT22;1838;50.742;7.158;2023-02-23T17:03:18;10.90;99.90
3644;DHT22;1838;50.742;7.158;2023-02-23T17:05:45;10.90;99.90
3644;DHT22;1838;50.742;7.158;2023-02-23T17:08:11;10.90;99.90
3644;DHT22;1838;50.742;7.158;2023-02-23T17:10:36;10.90;99.90
3644;DHT22;1838;50.742;7.158;2023-02-23T17:13:05;10.90;99.90
3644;DHT22;1838;50.742;7.158;2023-02-23T17:15:37;11.00;99.90
3644;DHT22;1838;50.742;7.158;2023-02-23T17:18:03;10.80;99.90
3644;DHT22;1838;50.742;7.158;2023-02-23T17:20:29;10.80;99.90
3644;DHT22;1838;50.742;7.158;2023-02-23T17:22:57;10.80;99.90
3644;DHT22;1838;50.742;7.158;2023-02-23T17:25:24;10.70;99.90
3644;DHT22;1838;50.742;7.158;2023-02-23T17:27:51;10.60;99.90
3644;DHT22;1838;50.742;7.158;2023-02-23T17:30:17;10.70;99.90
3644;DHT22;1838;50.742;7.158;2023-02-23T17:32:43;10.60;99.90
3644;DHT22;1838;50.742;7.158;2023-02-23T17:35:09;10.50;99.90
3644;DHT22;1838;50.742;7.158;2023-02-23T17:37:35;10.50;99.90
3644;DHT22;1838;50.742;7.158;2023-02-23T17:40:06;10.50;99.90
3644;DHT22;1838;50.742;7.158;2023-02-23T17:42:32;10.50;99.90
3644;DHT22;1838;50.742;7.158;2023-02-23T17:45:00;10.50;99.90
3644;DHT22;1838;50.742;7.158;2023-02-23T17:47:26;10.60;99.90
3644;DHT22;1838;50.742;7.158;2023-02-23T17:49:51;10.60;99.90
3644;DHT22;1838;50.742;7.158;2023-02-23T17:52:17;10.60;99.90
3644;DHT22;1838;50.742;7.158;2023-02-23T17:54:44;10.60;99.90
3644;DHT22;1838;50.742;7.158;2023-02-23T17:57:10;10.60;99.90
3644;DHT22;1838;50.742;7.158;2023-02-23T17:59:35;10.60;99.90
3644;DHT22;1838;50.742;7.158;2023-02-23T18:02:01;10.50;99.90
3644;DHT22;1838;50.742;7.158;2023-02-23T18:04:27;10.50;99.90
3644;DHT22;1838;50.742;7.158;2023-02-23T18:06:52;10.50;99.90
3644;DHT22;1838;50.742;7.158;2023-02-23T18:09:18;10.40;99.90
3644;DHT22;1838;50.742;7.158;2023-02-23T18:11:43;10.40;99.90
3644;DHT22;1838;50.742;7.158;2023-02-23T18:14:10;10.30;99.90
3644;DHT22;1838;50.742;7.158;2023-02-23T18:16:38;10.20;99.90
3644;DHT22;1838;50.742;7.158;2023-02-23T18:19:04;10.10;99.90
3644;DHT22;1838;50.742;7.158;2023-02-23T18:21:29;10.00;99.90
3644;DHT22;1838;50.742;7.158;2023-02-23T18:23:58;10.00;99.90
3644;DHT22;1838;50.742;7.158;2023-02-23T18:26:24;10.00;99.90